Kalaeloa (John Rodgers Field) Airport Kapolei US
ICAO: PHJR
IATA:
Category: Medium
Scheduled Services:

Elevation: 30 ft
TransAlt. 18000 ft.

Airport Communications:
HONOLULU APP/DEP:118.3
ATIS:119.8
CLNC DEL:121.7
CTAF:132.6
GND:123.8
TWR:132.6

PHJR Zoom In..

Runways:

(A) RW 04L length 4500 ft width 200 ft
---- / hdg 44

(B) RW 04R length 8000 ft width 200 ft
---- / hdg 44

(C) RW 11 length 6000 ft width 200 ft
---- / hdg 108

(D) RW 22L length 8000 ft width 200 ft
---- / hdg 224

(E) RW 22R length 4500 ft width 200 ft
---- / hdg 224

(F) RW 29 length 6000 ft width 200 ft
---- / hdg 288

Location; PHJR
Day. 29 / Time. 18.53 Zulu
* Altimeter: 30.09
* Temperature: 26° c. 78.8°f.
* Wind from: 030° Speed 08 kn.
Dewpoint: 18° c.
Visibility: 10 Statute Miles.
Clouds: Few 7000 ft.

PHJR 291853Z 03008KT 10SM FEW070 26/18 A3009 RMK AO2 SLP195 T02560183

Going to: --> -->


Wind From 030°
Speed 08 kn.

 
 
jpsmedia worldairports.se 2020   terms of use